Time;durP1;ratioP1;P1;durP2;ratioP2;P2;SDS_P1;SDS_P2;PMS_P1;PMS_P2;Temp;Humidity;BMP_temperature;BMP_pressure;BME280_temperature;BME280_humidity;BME280_pressure;Samples;Min_cycle;Max_cycle;Signal;HPM_P1;HPM_P2
2022/05/24 00:02:20;;;;;;;2.13;1.73;;;18.20;97.20;;;;;;5030628;28;20958;-67
2022/05/24 00:04:46;;;;;;;2.27;2.00;;;18.20;97.30;;;;;;5030667;28;20171;-68
2022/05/24 00:07:12;;;;;;;2.03;1.93;;;18.20;97.50;;;;;;5030625;28;20180;-67
2022/05/24 00:09:38;;;;;;;3.47;1.70;;;18.20;97.60;;;;;;5030923;28;20169;-68
2022/05/24 00:12:04;;;;;;;1.87;1.60;;;18.20;97.70;;;;;;5030774;28;20195;-68
2022/05/24 00:17:13;;;;;;;1.60;1.50;;;18.20;97.90;;;;;;5030727;28;20408;-68
2022/05/24 00:19:39;;;;;;;2.00;1.80;;;18.20;98.00;;;;;;5030537;28;20455;-67
2022/05/24 00:22:04;;;;;;;1.57;1.37;;;18.10;98.10;;;;;;5030757;28;20335;-67
2022/05/24 00:24:30;;;;;;;1.80;1.53;;;18.10;98.20;;;;;;5032719;28;20174;-67
2022/05/24 00:26:55;;;;;;;2.40;1.90;;;18.10;98.30;;;;;;5034933;28;20692;-68
2022/05/24 00:29:21;;;;;;;2.00;1.90;;;18.10;98.40;;;;;;5034801;28;20176;-68
2022/05/24 00:31:48;;;;;;;2.63;1.93;;;18.10;98.40;;;;;;5034208;28;20239;-68
2022/05/24 00:34:13;;;;;;;2.07;1.63;;;18.10;98.50;;;;;;5034550;28;20762;-68
2022/05/24 00:36:39;;;;;;;1.70;1.60;;;18.10;98.70;;;;;;5034225;28;20496;-68
2022/05/24 00:39:04;;;;;;;1.70;1.53;;;18.00;98.80;;;;;;5034520;28;20255;-68
2022/05/24 00:42:00;;;;;;;1.70;1.60;;;18.00;98.90;;;;;;5034515;28;20264;-68
2022/05/24 00:44:42;;;;;;;1.87;1.77;;;18.00;99.00;;;;;;5034851;28;20238;-68
2022/05/24 00:47:13;;;;;;;1.70;1.50;;;18.00;99.20;;;;;;5034590;28;20412;-68
2022/05/24 00:49:47;;;;;;;1.70;1.60;;;17.90;99.20;;;;;;5034612;28;20420;-68
2022/05/24 00:52:13;;;;;;;2.50;1.60;;;18.00;99.30;;;;;;5034307;28;20457;-67
2022/05/24 00:54:39;;;;;;;2.10;1.93;;;18.00;99.30;;;;;;5034104;28;20914;-69
2022/05/24 00:57:10;;;;;;;2.67;2.13;;;18.00;99.50;;;;;;5034056;28;20210;-66
2022/05/24 00:59:45;;;;;;;1.60;1.50;;;18.00;99.50;;;;;;5034384;28;20527;-66
2022/05/24 01:02:11;;;;;;;2.20;2.00;;;18.00;99.50;;;;;;5033860;28;20509;-67
2022/05/24 01:04:36;;;;;;;1.90;1.80;;;18.00;99.60;;;;;;5033715;28;20578;-67
2022/05/24 01:07:03;;;;;;;2.53;2.00;;;18.00;99.70;;;;;;5034065;28;20287;-66
2022/05/24 01:09:40;;;;;;;1.67;1.57;;;18.00;99.90;;;;;;5033959;28;20170;-67
2022/05/24 01:12:34;;;;;;;2.60;1.97;;;18.00;99.90;;;;;;5033943;28;20499;-67
2022/05/24 01:15:04;;;;;;;2.13;1.90;;;18.00;99.90;;;;;;5002871;28;20519;-67
2022/05/24 01:17:30;;;;;;;3.43;1.93;;;18.00;99.90;;;;;;5033933;28;20518;-67
2022/05/24 01:19:55;;;;;;;2.23;2.00;;;18.00;99.90;;;;;;5033925;28;20898;-67
2022/05/24 01:22:55;;;;;;;2.30;1.90;;;18.00;99.90;;;;;;5032609;28;20234;-67
2022/05/24 01:25:37;;;;;;;1.60;1.50;;;18.00;99.90;;;;;;5034311;28;20174;-67
2022/05/24 01:28:10;;;;;;;1.83;1.73;;;18.00;99.90;;;;;;5034861;28;20422;-67
2022/05/24 01:30:36;;;;;;;1.80;1.70;;;18.00;99.90;;;;;;5033098;28;20442;-67
2022/05/24 01:38:31;;;;;;;3.93;2.33;;;18.00;99.90;;;;;;5014664;28;20451;-69
2022/05/24 01:40:57;;;;;;;2.23;1.80;;;17.90;99.90;;;;;;5014145;28;20415;-69
2022/05/24 01:43:26;;;;;;;2.60;1.70;;;18.00;99.90;;;;;;5014633;28;20413;-68
2022/05/24 01:46:02;;;;;;;3.03;2.40;;;18.00;99.90;;;;;;5014286;28;20192;-68
2022/05/24 01:48:46;;;;;;;2.30;2.10;;;18.00;99.90;;;;;;5014451;28;20411;-68
2022/05/24 01:51:14;;;;;;;1.83;1.73;;;18.00;99.90;;;;;;5014048;28;20801;-68
2022/05/24 01:53:44;;;;;;;1.93;1.83;;;18.00;99.90;;;;;;5014202;28;20426;-69
2022/05/24 01:56:15;;;;;;;2.57;1.77;;;17.90;99.90;;;;;;5014093;28;21059;-68
2022/05/24 01:58:45;;;;;;;2.77;1.70;;;17.90;99.90;;;;;;5013541;28;20485;-69
2022/05/24 02:01:32;;;;;;;2.40;2.20;;;17.90;99.90;;;;;;5012648;28;20543;-69
2022/05/24 02:04:01;;;;;;;3.10;1.90;;;17.90;99.90;;;;;;5014402;28;20401;-69
2022/05/24 02:06:28;;;;;;;3.83;2.00;;;17.90;99.90;;;;;;5014269;28;20409;-69
2022/05/24 02:08:54;;;;;;;2.40;2.00;;;17.80;99.90;;;;;;5014429;28;20820;-69
2022/05/24 02:11:23;;;;;;;1.93;1.83;;;17.80;99.90;;;;;;5014210;28;20447;-69
2022/05/24 02:13:52;;;;;;;2.50;2.10;;;17.70;99.90;;;;;;5014055;28;20412;-69
2022/05/24 02:16:22;;;;;;;2.77;2.00;;;17.70;99.90;;;;;;5012277;28;20463;-69
2022/05/24 02:18:50;;;;;;;2.40;2.23;;;17.60;99.90;;;;;;5013869;28;20447;-69
2022/05/24 02:21:15;;;;;;;2.47;2.27;;;17.60;99.90;;;;;;5013788;28;20471;-69
2022/05/24 02:23:45;;;;;;;2.40;2.23;;;17.50;99.90;;;;;;5013522;28;20444;-69
2022/05/24 02:26:12;;;;;;;2.10;1.70;;;17.50;99.90;;;;;;5013218;28;20260;-68
2022/05/24 02:28:38;;;;;;;2.30;1.80;;;17.40;99.90;;;;;;5013604;28;20410;-68
2022/05/24 02:31:08;;;;;;;2.63;2.00;;;17.40;99.90;;;;;;5013359;28;20487;-69
2022/05/24 02:33:34;;;;;;;2.30;2.13;;;17.40;99.90;;;;;;5013463;28;20193;-68
2022/05/24 02:35:59;;;;;;;1.77;1.60;;;17.40;99.90;;;;;;5013386;28;20502;-69
2022/05/24 02:38:25;;;;;;;2.37;2.17;;;17.40;99.90;;;;;;5013287;28;20539;-69
2022/05/24 02:43:36;;;;;;;2.20;1.97;;;17.40;99.90;;;;;;5013526;28;20917;-68
2022/05/24 02:46:02;;;;;;;2.07;1.67;;;17.40;99.90;;;;;;5012749;28;20414;-68
2022/05/24 02:48:28;;;;;;;1.90;1.80;;;17.40;99.90;;;;;;5013170;28;20413;-69
2022/05/24 02:50:53;;;;;;;1.83;1.70;;;17.40;99.90;;;;;;5012909;28;20836;-69
2022/05/24 02:53:19;;;;;;;2.80;2.33;;;17.40;99.90;;;;;;5013334;28;20632;-69
2022/05/24 02:55:44;;;;;;;2.40;2.20;;;17.40;99.90;;;;;;5012920;28;20224;-68
2022/05/24 02:58:11;;;;;;;2.33;1.70;;;17.30;99.90;;;;;;5012989;28;20570;-68
2022/05/24 03:00:37;;;;;;;2.10;1.80;;;17.30;99.90;;;;;;5013082;28;20180;-69
2022/05/24 03:03:03;;;;;;;2.10;1.90;;;17.20;99.90;;;;;;5012885;28;20426;-68
2022/05/24 03:05:29;;;;;;;2.33;2.13;;;17.20;99.90;;;;;;5012914;28;20418;-68
2022/05/24 03:10:40;;;;;;;2.47;2.27;;;17.10;99.90;;;;;;5013146;28;20428;-68
2022/05/24 03:15:50;;;;;;;2.60;1.80;;;17.00;99.90;;;;;;5016904;28;20784;-69
2022/05/24 03:18:18;;;;;;;3.47;2.40;;;17.00;99.90;;;;;;5018529;28;20483;-68
2022/05/24 03:20:44;;;;;;;2.10;1.90;;;16.90;99.90;;;;;;5013583;28;20267;-69
2022/05/24 03:23:11;;;;;;;4.30;2.50;;;16.90;99.90;;;;;;5012575;28;20467;-69
2022/05/24 03:25:37;;;;;;;2.50;2.00;;;16.80;99.90;;;;;;5012732;28;20168;-69
2022/05/24 03:28:04;;;;;;;2.50;2.30;;;16.80;99.90;;;;;;5012794;28;20428;-69
2022/05/24 03:30:30;;;;;;;2.50;2.30;;;16.80;99.90;;;;;;5012373;28;20429;-69
2022/05/24 03:32:56;;;;;;;3.20;2.40;;;16.80;99.90;;;;;;5012202;28;20451;-69
2022/05/24 03:35:23;;;;;;;3.10;2.40;;;16.80;99.90;;;;;;5012230;28;20426;-69
2022/05/24 03:37:49;;;;;;;2.40;2.20;;;16.80;99.90;;;;;;5012525;28;20303;-69
2022/05/24 03:40:15;;;;;;;2.10;1.90;;;16.80;99.90;;;;;;5012220;28;20483;-69
2022/05/24 03:42:40;;;;;;;3.00;2.70;;;16.80;99.90;;;;;;5012297;28;20192;-69
2022/05/24 03:45:08;;;;;;;2.47;2.27;;;16.80;99.90;;;;;;5012105;28;20182;-69
2022/05/24 03:47:35;;;;;;;2.23;2.13;;;16.80;99.90;;;;;;5010943;28;20174;-69
2022/05/24 03:50:00;;;;;;;2.70;2.40;;;16.80;99.90;;;;;;5012368;28;20512;-68
2022/05/24 03:52:26;;;;;;;2.60;2.40;;;16.90;99.90;;;;;;5012257;28;20497;-69
2022/05/24 03:54:51;;;;;;;2.30;2.10;;;16.80;99.90;;;;;;5011949;28;20851;-70
2022/05/24 04:00:02;;;;;;;2.57;2.37;;;16.80;99.90;;;;;;5011800;28;20596;-69
2022/05/24 04:02:27;;;;;;;2.90;2.70;;;16.80;99.90;;;;;;5012035;28;20439;-69
2022/05/24 04:04:53;;;;;;;3.40;3.10;;;16.80;99.90;;;;;;5011950;28;20399;-70
2022/05/24 04:07:18;;;;;;;2.83;2.20;;;16.80;99.90;;;;;;5012058;28;20176;-69
2022/05/24 04:09:44;;;;;;;3.33;3.03;;;16.80;99.90;;;;;;5011672;28;20172;-70
2022/05/24 04:12:09;;;;;;;3.13;2.87;;;16.80;99.90;;;;;;5011488;28;20719;-70
2022/05/24 04:14:35;;;;;;;2.43;2.23;;;16.60;99.90;;;;;;5011731;28;20631;-70
2022/05/24 04:17:01;;;;;;;3.60;3.17;;;16.50;99.90;;;;;;5012005;28;20169;-69
2022/05/24 04:19:27;;;;;;;3.27;2.97;;;16.30;99.90;;;;;;5011586;28;20624;-70
2022/05/24 04:21:53;;;;;;;2.87;2.67;;;16.30;99.90;;;;;;5011639;28;20180;-70
2022/05/24 04:24:18;;;;;;;3.97;3.57;;;16.20;99.90;;;;;;5011659;28;20407;-70
2022/05/24 04:26:43;;;;;;;3.30;3.00;;;16.10;99.90;;;;;;5011411;28;20947;-69
2022/05/24 04:29:09;;;;;;;6.20;3.57;;;16.10;99.90;;;;;;5011478;28;20246;-69
2022/05/24 04:31:34;;;;;;;3.70;3.40;;;16.00;99.90;;;;;;5011143;28;20204;-70
2022/05/24 04:34:00;;;;;;;3.23;2.90;;;16.00;99.90;;;;;;5011504;28;20184;-69
2022/05/24 04:36:26;;;;;;;3.33;3.03;;;16.00;99.90;;;;;;5011317;28;20177;-69
2022/05/24 04:38:51;;;;;;;4.13;3.77;;;16.00;99.90;;;;;;5011113;28;20619;-69
2022/05/24 04:44:00;;;;;;;6.23;3.10;;;16.10;99.90;;;;;;5011355;28;20172;-69
2022/05/24 04:47:06;;;;;;;4.00;3.60;;;16.00;99.90;;;;;;5011035;28;20404;-69
2022/05/24 04:49:12;;;;;;;4.07;3.70;;;16.00;99.90;;;;;;5011227;28;20181;-69
2022/05/24 04:51:38;;;;;;;3.70;3.30;;;16.00;99.90;;;;;;5011176;28;20439;-69
2022/05/24 04:54:03;;;;;;;4.50;4.10;;;16.00;99.90;;;;;;5011098;28;20410;-69
2022/05/24 04:56:28;;;;;;;5.20;4.70;;;16.10;99.90;;;;;;5011009;28;20211;-70
2022/05/24 04:58:54;;;;;;;4.77;3.73;;;16.10;99.90;;;;;;5011314;28;20211;-71
2022/05/24 05:01:19;;;;;;;4.50;4.10;;;16.00;99.90;;;;;;5011113;28;20193;-70
2022/05/24 05:03:45;;;;;;;3.47;3.23;;;16.00;99.90;;;;;;5012069;28;20223;-71
2022/05/24 05:06:10;;;;;;;4.97;4.57;;;16.00;99.90;;;;;;5017283;28;20184;-69
2022/05/24 05:08:36;;;;;;;4.40;4.00;;;16.00;99.90;;;;;;5012040;28;20252;-69
2022/05/24 05:11:01;;;;;;;4.60;3.57;;;16.10;99.90;;;;;;5014211;28;20208;-69
2022/05/24 05:13:27;;;;;;;4.80;3.90;;;16.10;99.90;;;;;;5014560;28;20185;-69
2022/05/24 05:15:53;;;;;;;4.00;3.40;;;16.20;99.90;;;;;;5014548;28;20184;-69
2022/05/24 05:18:20;;;;;;;5.43;4.73;;;16.20;99.90;;;;;;5014544;28;20632;-68
2022/05/24 05:20:46;;;;;;;3.77;3.43;;;16.20;99.90;;;;;;5014634;28;20174;-68
2022/05/24 05:23:14;;;;;;;5.43;4.57;;;16.30;99.90;;;;;;5014219;28;20565;-68
2022/05/24 05:25:47;;;;;;;4.93;3.37;;;16.30;99.90;;;;;;5014543;28;20637;-68
2022/05/24 05:28:13;;;;;;;5.00;4.50;;;16.30;99.90;;;;;;5014780;28;20495;-70
2022/05/24 05:33:23;;;;;;;4.67;4.17;;;16.30;99.90;;;;;;5013998;28;20426;-68
2022/05/24 05:35:49;;;;;;;5.03;4.13;;;16.20;99.90;;;;;;5014339;28;20425;-68
2022/05/24 05:38:15;;;;;;;4.30;3.90;;;16.30;99.90;;;;;;5014169;28;20629;-68
2022/05/24 05:40:41;;;;;;;7.67;5.43;;;16.30;99.90;;;;;;5014274;28;20418;-68
2022/05/24 05:43:06;;;;;;;5.10;4.53;;;16.40;99.90;;;;;;5014020;28;20271;-70
2022/05/24 05:45:32;;;;;;;6.00;4.63;;;16.50;99.90;;;;;;5013802;28;20404;-69
2022/05/24 05:47:58;;;;;;;5.90;4.83;;;16.50;99.90;;;;;;5013966;28;20182;-68
2022/05/24 05:50:23;;;;;;;5.90;5.30;;;16.50;99.90;;;;;;5014026;28;20184;-68
2022/05/24 05:52:50;;;;;;;6.33;4.97;;;16.40;99.90;;;;;;5013869;28;20192;-68
2022/05/24 05:55:15;;;;;;;5.20;4.70;;;16.40;99.90;;;;;;5013790;28;20180;-67
2022/05/24 05:57:41;;;;;;;5.57;5.00;;;16.30;99.90;;;;;;5013909;28;20472;-70
2022/05/24 06:00:08;;;;;;;4.87;4.43;;;16.30;99.90;;;;;;5012676;28;20168;-69
2022/05/24 06:02:37;;;;;;;4.33;3.93;;;16.30;99.90;;;;;;5013522;28;20223;-69
2022/05/24 06:05:04;;;;;;;5.00;4.50;;;16.40;99.90;;;;;;5013551;28;20407;-70
2022/05/24 06:07:30;;;;;;;4.83;4.23;;;16.40;99.90;;;;;;5013702;28;20948;-69
2022/05/24 06:09:56;;;;;;;5.10;4.60;;;16.50;99.90;;;;;;5013668;28;20417;-69
2022/05/24 06:12:21;;;;;;;6.00;5.50;;;16.50;99.90;;;;;;5013443;28;20193;-70
2022/05/24 06:14:47;;;;;;;9.53;4.37;;;16.70;99.90;;;;;;5013638;28;20192;-69
2022/05/24 06:17:12;;;;;;;4.13;3.70;;;16.90;99.90;;;;;;5013756;28;20611;-69
2022/05/24 06:19:38;;;;;;;4.07;3.77;;;17.40;99.90;;;;;;5013757;28;20213;-69
2022/05/24 06:22:04;;;;;;;5.20;3.60;;;17.90;99.90;;;;;;5012742;28;20194;-69
2022/05/24 06:24:29;;;;;;;3.93;3.37;;;17.90;99.90;;;;;;5013523;28;20187;-68
2022/05/24 06:26:56;;;;;;;3.33;2.93;;;18.10;99.90;;;;;;5013560;28;20408;-68
2022/05/24 06:29:22;;;;;;;3.77;2.67;;;18.40;99.90;;;;;;5014114;28;20260;-68
2022/05/24 06:31:48;;;;;;;3.83;3.37;;;18.50;99.90;;;;;;5013176;28;20873;-68
2022/05/24 06:34:13;;;;;;;3.50;3.20;;;18.70;99.90;;;;;;5013544;28;20496;-68
2022/05/24 06:36:39;;;;;;;3.90;3.23;;;18.40;99.90;;;;;;5013273;28;20256;-68
2022/05/24 06:39:04;;;;;;;4.17;3.77;;;18.30;99.90;;;;;;5013436;28;20213;-69
2022/05/24 06:41:30;;;;;;;3.33;3.03;;;17.90;99.90;;;;;;5013057;28;20262;-68
2022/05/24 06:43:55;;;;;;;2.93;2.70;;;17.90;99.90;;;;;;5013451;28;20219;-69
2022/05/24 06:46:21;;;;;;;2.97;2.77;;;18.00;99.90;;;;;;5013426;28;20544;-68
2022/05/24 06:48:46;;;;;;;4.60;4.17;;;18.20;99.90;;;;;;5013391;28;20241;-68
2022/05/24 06:51:14;;;;;;;2.60;2.40;;;18.40;99.90;;;;;;5014304;28;20292;-69
2022/05/24 06:53:42;;;;;;;3.87;3.03;;;18.20;99.90;;;;;;5015046;28;20264;-68
2022/05/24 06:56:08;;;;;;;4.83;2.90;;;18.10;99.90;;;;;;5012690;28;20437;-69
2022/05/24 06:58:34;;;;;;;2.40;2.20;;;17.90;99.90;;;;;;5012969;28;20545;-69
2022/05/24 07:03:45;;;;;;;2.93;2.40;;;18.30;99.90;;;;;;5012757;28;20764;-68
2022/05/24 07:06:12;;;;;;;2.90;2.10;;;18.80;99.90;;;;;;5012740;28;20410;-68
2022/05/24 07:08:39;;;;;;;2.60;2.40;;;18.70;99.90;;;;;;5013018;28;20439;-68
2022/05/24 07:11:05;;;;;;;2.80;2.37;;;19.10;99.90;;;;;;5012840;28;20858;-68
2022/05/24 07:13:30;;;;;;;3.90;2.70;;;18.90;99.90;;;;;;5013300;28;20495;-68
2022/05/24 07:15:56;;;;;;;2.50;2.30;;;19.10;99.90;;;;;;5012871;28;20173;-67
2022/05/24 07:18:21;;;;;;;2.00;1.80;;;19.70;99.90;;;;;;5012619;28;20210;-67
2022/05/24 07:20:47;;;;;;;3.90;1.87;;;19.80;99.90;;;;;;5013056;28;20170;-68
2022/05/24 07:23:16;;;;;;;2.03;1.83;;;20.60;99.90;;;;;;5012678;28;20575;-68
2022/05/24 07:25:42;;;;;;;1.93;1.77;;;19.80;99.90;;;;;;5010760;28;20959;-68
2022/05/24 07:28:10;;;;;;;2.37;2.17;;;20.10;99.90;;;;;;5012853;28;20435;-68
2022/05/24 07:30:35;;;;;;;1.70;1.37;;;20.00;99.90;;;;;;5012681;28;20403;-68
2022/05/24 07:33:01;;;;;;;1.80;1.67;;;19.50;99.90;;;;;;5047823;23;20501;-72
2022/05/24 07:35:27;;;;;;;1.70;1.60;;;19.50;99.90;;;;;;5032044;28;20179;-72
2022/05/24 07:37:53;;;;;;;2.03;1.83;;;20.00;99.90;;;;;;5032223;28;20666;-72
2022/05/24 07:45:49;;;;;;;1.80;1.70;;;19.20;99.90;;;;;;5032258;28;20398;-72
2022/05/24 07:48:17;;;;;;;1.50;1.40;;;19.30;99.90;;;;;;5034694;28;20415;-71
2022/05/24 07:50:43;;;;;;;2.50;1.83;;;18.90;99.90;;;;;;5032419;28;20402;-72
2022/05/24 07:53:08;;;;;;;1.70;1.60;;;19.20;99.90;;;;;;5032078;28;20439;-72
2022/05/24 07:55:35;;;;;;;1.93;1.73;;;19.20;99.90;;;;;;5031762;28;20434;-72
2022/05/24 07:58:00;;;;;;;1.73;1.53;;;19.10;99.90;;;;;;5032058;28;20200;-72
2022/05/24 08:00:26;;;;;;;2.00;1.70;;;18.70;99.90;;;;;;5032018;28;20474;-72
2022/05/24 08:02:53;;;;;;;1.80;1.70;;;18.60;99.90;;;;;;5031750;28;20203;-72
2022/05/24 08:05:20;;;;;;;2.77;1.63;;;18.70;99.90;;;;;;5032000;28;20647;-73
2022/05/24 08:07:46;;;;;;;1.70;1.60;;;18.80;99.90;;;;;;5032025;28;20445;-72
2022/05/24 08:10:12;;;;;;;1.60;1.50;;;18.90;99.90;;;;;;5032031;28;20901;-72
2022/05/24 08:12:38;;;;;;;1.83;1.73;;;19.60;99.90;;;;;;5031973;28;20565;-72
2022/05/24 08:15:04;;;;;;;1.50;1.40;;;20.50;99.90;;;;;;5031695;28;20405;-73
2022/05/24 08:17:30;;;;;;;1.67;1.57;;;20.60;99.90;;;;;;5031729;28;20176;-72
2022/05/24 08:19:55;;;;;;;2.00;1.80;;;20.40;99.90;;;;;;5032303;28;20603;-72
2022/05/24 08:22:21;;;;;;;1.57;1.47;;;19.80;99.90;;;;;;5031565;28;20184;-72
2022/05/24 08:24:46;;;;;;;1.63;1.53;;;20.20;99.90;;;;;;5031449;28;20174;-72
2022/05/24 08:27:14;;;;;;;1.87;1.60;;;20.10;99.90;;;;;;5031567;28;20169;-72
2022/05/24 08:29:40;;;;;;;2.53;1.60;;;20.00;99.90;;;;;;5031691;28;20656;-72
2022/05/24 08:32:06;;;;;;;2.17;1.97;;;19.60;99.90;;;;;;5031148;28;20459;-72
2022/05/24 08:34:32;;;;;;;1.87;1.73;;;19.10;99.90;;;;;;5031411;28;20444;-72
2022/05/24 08:36:58;;;;;;;2.07;1.60;;;18.60;99.90;;;;;;5031573;28;20863;-72
2022/05/24 08:39:23;;;;;;;1.83;1.37;;;18.80;99.90;;;;;;5031616;28;20286;-71
2022/05/24 08:42:05;;;;;;;2.43;1.60;;;18.40;99.90;;;;;;5030286;28;20443;-72
2022/05/24 08:50:15;;;;;;;1.70;1.60;;;18.70;99.90;;;;;;5035636;28;20770;-72
2022/05/24 08:52:48;;;;;;;1.77;1.67;;;18.30;99.90;;;;;;5034151;28;20492;-73
2022/05/24 08:55:15;;;;;;;1.60;1.50;;;18.40;99.90;;;;;;5035361;28;20478;-72
2022/05/24 08:57:51;;;;;;;2.17;1.70;;;18.80;99.90;;;;;;5035133;28;20411;-72
2022/05/24 09:00:39;;;;;;;1.63;1.53;;;19.20;99.90;;;;;;5035468;28;20408;-73
2022/05/24 09:03:06;;;;;;;1.37;1.27;;;19.80;99.90;;;;;;5033568;28;20950;-72
2022/05/24 09:05:43;;;;;;;1.30;1.20;;;20.30;99.90;;;;;;5034900;28;20826;-72
2022/05/24 09:08:15;;;;;;;1.80;1.37;;;21.00;99.90;;;;;;5037986;28;20418;-73
2022/05/24 09:10:49;;;;;;;1.90;1.10;;;21.20;99.90;;;;;;5038604;28;20421;-73
2022/05/24 09:13:28;;;;;;;1.60;1.20;;;21.10;99.90;;;;;;5033901;28;20802;-73
2022/05/24 09:16:06;;;;;;;1.53;1.30;;;21.20;99.90;;;;;;5034813;28;20443;-72
2022/05/24 09:18:43;;;;;;;1.40;1.20;;;21.80;99.90;;;;;;5034748;28;20959;-72
2022/05/24 09:21:25;;;;;;;1.73;1.37;;;21.20;99.90;;;;;;5035099;28;20433;-72
2022/05/24 09:24:21;;;;;;;2.13;1.20;;;21.30;99.90;;;;;;5035145;28;20413;-73
2022/05/24 09:27:07;;;;;;;1.10;1.00;;;21.90;99.90;;;;;;5031117;28;20484;-72
2022/05/24 09:29:35;;;;;;;1.43;1.10;;;22.60;99.90;;;;;;5034791;28;20416;-72
2022/05/24 09:32:07;;;;;;;1.37;0.93;;;22.40;99.90;;;;;;5034163;28;20982;-72
2022/05/24 09:34:36;;;;;;;1.57;1.20;;;21.80;99.90;;;;;;5034716;28;20492;-72
2022/05/24 09:37:04;;;;;;;1.43;1.27;;;22.00;99.90;;;;;;5034569;28;20402;-73
2022/05/24 09:39:41;;;;;;;1.47;1.10;;;21.60;99.90;;;;;;5034442;28;20462;-72
2022/05/24 09:42:22;;;;;;;1.10;0.83;;;21.50;99.90;;;;;;5034157;28;20420;-71
2022/05/24 09:44:57;;;;;;;1.53;1.07;;;22.00;99.90;;;;;;5034178;28;20407;-71
2022/05/24 09:47:23;;;;;;;0.80;0.80;;;22.90;99.90;;;;;;5034317;28;20401;-72
2022/05/24 09:49:49;;;;;;;1.20;1.00;;;22.70;99.90;;;;;;5034241;28;20432;-72
2022/05/24 09:52:15;;;;;;;1.30;1.00;;;22.50;99.90;;;;;;5034114;28;20978;-72
2022/05/24 09:54:56;;;;;;;1.20;1.10;;;23.10;99.90;;;;;;5033784;28;20170;-72
2022/05/24 09:57:28;;;;;;;1.30;1.03;;;23.80;99.90;;;;;;5034179;28;20414;-72
2022/05/24 09:59:58;;;;;;;1.83;1.17;;;24.90;99.90;;;;;;5034055;28;20446;-72
2022/05/24 10:02:32;;;;;;;0.80;0.80;;;24.10;99.90;;;;;;5034349;28;20783;-71
2022/05/24 10:04:58;;;;;;;1.53;1.27;;;24.00;99.90;;;;;;5038546;28;20462;-72
2022/05/24 10:07:28;;;;;;;2.13;1.00;;;24.40;99.90;;;;;;5035457;28;20918;-72
2022/05/24 10:10:10;;;;;;;1.10;1.00;;;24.70;99.90;;;;;;5033673;28;20513;-72
2022/05/24 10:13:01;;;;;;;1.00;0.90;;;23.40;99.90;;;;;;5033526;28;20432;-72
2022/05/24 10:15:33;;;;;;;1.30;0.70;;;24.00;99.90;;;;;;5033641;28;20418;-72
2022/05/24 10:18:17;;;;;;;0.97;0.90;;;23.50;99.90;;;;;;5033604;28;20404;-72
2022/05/24 10:21:04;;;;;;;1.00;0.90;;;24.30;99.90;;;;;;5033848;28;20412;-72
2022/05/24 10:23:49;;;;;;;1.20;1.10;;;24.70;99.90;;;;;;5033569;28;20432;-72
2022/05/24 10:26:20;;;;;;;1.50;1.20;;;23.60;99.90;;;;;;5033361;28;20468;-72
2022/05/24 10:29:03;;;;;;;1.40;1.20;;;22.80;99.90;;;;;;5033716;28;20433;-72
2022/05/24 10:31:46;;;;;;;1.10;1.00;;;22.30;99.90;;;;;;5033294;28;20472;-72
2022/05/24 10:40:34;;;;;;;1.00;0.87;;;22.60;99.90;;;;;;5033267;28;20395;-72
2022/05/24 10:43:13;;;;;;;1.40;0.97;;;23.00;99.90;;;;;;5033094;28;20423;-72
2022/05/24 10:45:50;;;;;;;2.23;2.13;;;23.20;99.90;;;;;;5033041;28;20423;-72
2022/05/24 10:48:48;;;;;;;1.80;1.27;;;23.20;99.90;;;;;;5033539;28;20821;-72
2022/05/24 10:51:28;;;;;;;1.20;1.10;;;22.90;99.90;;;;;;4964046;28;20414;-72
2022/05/24 10:54:01;;;;;;;1.17;1.07;;;23.30;99.90;;;;;;5033527;28;20502;-72
2022/05/24 10:57:23;;;;;;;1.00;0.83;;;23.80;99.90;;;;;;5032572;28;20395;-72
2022/05/24 10:59:53;;;;;;;1.97;1.20;;;23.40;99.90;;;;;;4952114;29;20549;-72
2022/05/24 11:02:30;;;;;;;0.90;0.90;;;23.40;99.90;;;;;;5028274;28;20458;-72
2022/05/24 11:05:03;;;;;;;1.30;1.20;;;23.30;99.90;;;;;;5032602;28;20439;-72
2022/05/24 11:07:32;;;;;;;1.20;1.10;;;23.60;99.90;;;;;;5033037;28;20409;-72
2022/05/24 11:10:19;;;;;;;1.23;1.13;;;23.60;99.90;;;;;;5032575;28;20408;-72
2022/05/24 11:12:49;;;;;;;0.80;0.80;;;23.30;99.90;;;;;;5032552;28;20435;-72
2022/05/24 11:15:32;;;;;;;1.47;1.10;;;22.80;99.90;;;;;;5032623;28;20408;-72
2022/05/24 11:18:00;;;;;;;1.67;1.40;;;23.00;99.90;;;;;;5031462;28;20426;-72
2022/05/24 11:20:35;;;;;;;1.30;1.20;;;23.20;99.90;;;;;;5032636;28;20436;-72
2022/05/24 11:23:16;;;;;;;0.93;0.93;;;23.30;99.90;;;;;;5032506;28;20942;-72
2022/05/24 11:25:53;;;;;;;1.43;1.07;;;23.60;99.90;;;;;;5032716;28;20969;-72
2022/05/24 11:28:26;;;;;;;1.10;1.00;;;23.70;99.90;;;;;;5032841;28;20416;-72
2022/05/24 11:30:53;;;;;;;0.83;0.83;;;23.50;99.90;;;;;;5032573;28;20440;-72
2022/05/24 11:33:39;;;;;;;1.07;0.97;;;23.50;99.90;;;;;;5032111;28;20533;-72
2022/05/24 11:36:34;;;;;;;0.90;0.80;;;22.80;99.90;;;;;;5032075;28;20417;-73
2022/05/24 11:39:11;;;;;;;1.37;1.00;;;22.90;99.90;;;;;;5032278;28;20453;-74
2022/05/24 11:41:37;;;;;;;1.00;0.80;;;23.10;99.90;;;;;;5030851;28;20431;-73
2022/05/24 11:44:27;;;;;;;1.20;1.10;;;22.90;99.60;;;;;;5032107;28;20413;-73
2022/05/24 11:46:53;;;;;;;6.63;0.97;;;23.10;99.90;;;;;;5032234;28;20178;-73
2022/05/24 11:49:18;;;;;;;1.60;1.20;;;22.90;99.90;;;;;;5032146;28;20418;-73
2022/05/24 11:51:45;;;;;;;1.87;1.10;;;23.00;99.90;;;;;;5031907;28;20194;-72
2022/05/24 11:54:19;;;;;;;1.10;1.00;;;23.30;99.90;;;;;;5031948;28;20221;-73
2022/05/24 11:57:01;;;;;;;1.27;1.13;;;23.30;99.90;;;;;;5032084;28;20415;-72
2022/05/24 11:59:46;;;;;;;1.33;1.17;;;23.50;99.90;;;;;;5032119;28;20486;-73
2022/05/24 12:02:21;;;;;;;1.50;1.00;;;23.40;99.90;;;;;;5032201;28;20428;-73
2022/05/24 12:08:07;;;;;;;1.73;1.50;;;22.80;99.90;;;;;;5031927;28;20399;-72
2022/05/24 12:10:40;;;;;;;1.27;1.13;;;23.20;99.90;;;;;;5031690;28;20415;-72
2022/05/24 12:13:29;;;;;;;1.70;1.20;;;23.30;99.90;;;;;;5031607;28;20420;-72
2022/05/24 12:15:57;;;;;;;1.03;0.93;;;23.20;99.90;;;;;;5031412;28;20820;-73
2022/05/24 12:18:39;;;;;;;1.20;1.10;;;23.40;99.90;;;;;;5031674;28;20455;-73
2022/05/24 12:21:05;;;;;;;1.63;1.30;;;23.90;99.90;;;;;;5035085;28;20771;-73
2022/05/24 12:23:30;;;;;;;1.10;1.00;;;24.10;99.60;;;;;;5035586;28;20453;-73
2022/05/24 12:26:08;;;;;;;2.00;1.30;;;24.20;99.90;;;;;;5035463;28;20861;-73
2022/05/24 12:28:34;;;;;;;1.00;0.90;;;23.80;99.90;;;;;;5035856;28;20661;-73
2022/05/24 12:31:13;;;;;;;1.20;1.10;;;23.30;99.90;;;;;;5035821;28;20406;-72
2022/05/24 12:33:49;;;;;;;1.30;1.20;;;23.60;99.90;;;;;;5035437;28;20422;-73
2022/05/24 12:36:26;;;;;;;1.10;0.93;;;23.70;99.90;;;;;;5035409;28;20744;-73
2022/05/24 12:39:03;;;;;;;2.20;1.70;;;23.40;99.90;;;;;;5035377;28;20459;-72
2022/05/24 12:41:33;;;;;;;1.43;1.30;;;23.00;99.90;;;;;;5035336;28;20436;-72
2022/05/24 12:44:03;;;;;;;1.80;1.40;;;22.60;99.90;;;;;;5035361;28;20441;-72
2022/05/24 12:46:35;;;;;;;1.30;1.20;;;22.50;99.90;;;;;;5035130;28;20428;-73
2022/05/24 12:49:09;;;;;;;1.80;1.30;;;22.30;99.90;;;;;;5035265;28;20424;-73
2022/05/24 12:51:37;;;;;;;1.53;1.30;;;22.30;99.90;;;;;;5033962;28;20430;-73
2022/05/24 12:54:13;;;;;;;1.77;1.67;;;22.30;99.90;;;;;;5035495;28;20413;-73
2022/05/24 12:56:38;;;;;;;1.57;1.23;;;22.40;99.90;;;;;;5035085;28;20467;-73
2022/05/24 12:59:12;;;;;;;1.00;0.97;;;22.70;99.90;;;;;;5035258;28;20545;-74
2022/05/24 13:01:41;;;;;;;2.20;1.70;;;23.00;99.90;;;;;;5035247;28;20552;-73
2022/05/24 13:04:19;;;;;;;1.20;1.10;;;23.20;99.90;;;;;;5035227;28;20410;-73
2022/05/24 13:06:46;;;;;;;9.03;2.00;;;23.50;99.90;;;;;;5034992;28;20414;-73
2022/05/24 13:09:26;;;;;;;1.20;1.20;;;23.60;99.90;;;;;;5035140;28;20407;-74
2022/05/24 13:12:00;;;;;;;1.50;1.40;;;23.80;99.90;;;;;;5034846;28;20434;-73
2022/05/24 13:14:56;;;;;;;1.50;1.40;;;24.10;99.90;;;;;;5034764;28;20894;-73
2022/05/24 13:17:25;;;;;;;1.60;1.10;;;24.00;99.90;;;;;;5034815;28;20396;-74
2022/05/24 13:20:04;;;;;;;2.07;1.40;;;24.00;99.90;;;;;;5034826;28;20452;-74
2022/05/24 13:22:44;;;;;;;1.50;1.40;;;23.70;99.20;;;;;;5034666;28;20947;-73
2022/05/24 13:25:14;;;;;;;1.50;1.40;;;23.70;99.50;;;;;;5034560;28;20812;-73
2022/05/24 13:28:01;;;;;;;1.23;1.13;;;23.90;99.90;;;;;;5034919;28;20487;-73
2022/05/24 13:33:35;;;;;;;1.67;1.47;;;24.00;99.60;;;;;;5051545;22;21049;-67
2022/05/24 13:36:20;;;;;;;1.23;1.03;;;23.40;99.90;;;;;;5013367;28;20500;-67
2022/05/24 13:39:05;;;;;;;1.27;1.20;;;23.50;99.90;;;;;;5013466;28;20455;-67
2022/05/24 13:41:45;;;;;;;1.37;1.27;;;23.40;99.50;;;;;;5013553;28;20395;-67
2022/05/24 13:44:32;;;;;;;1.73;1.47;;;23.50;99.50;;;;;;4992437;28;20421;-67
2022/05/24 13:47:01;;;;;;;1.67;1.30;;;23.30;99.20;;;;;;4993607;28;20892;-67
2022/05/24 13:49:43;;;;;;;1.23;1.13;;;23.20;99.70;;;;;;4994039;28;20509;-67
2022/05/24 13:52:50;;;;;;;3.53;3.27;;;22.70;99.90;;;;;;4994054;28;21060;-68
2022/05/24 13:55:31;;;;;;;3.50;3.30;;;22.50;99.90;;;;;;4994046;28;20789;-73
2022/05/24 13:58:05;;;;;;;5.10;4.60;;;22.90;99.90;;;;;;4994001;28;20512;-66